Time,TemperatureF,DewpointF,PressureIn,WindDirection,WindDirectionDegrees,WindSpeedMPH,WindSpeedGustMPH,Humidity,HourlyPrecipIn,Conditions,Clouds,dailyrainin,SoftwareType,DateUTC
2013-01-20 00:00:00,39.9,28.3,29.94,West,270,0.4,0.4,63,0.00,,OVC,0.00,VWS V14.00,2013-01-20 05:00:00,
2013-01-20 00:01:00,39.9,28.3,29.94,West,270,0.6,0.6,63,0.00,,OVC,0.00,VWS V14.00,2013-01-20 05:01:00,
2013-01-20 00:03:00,39.9,28.3,29.94,SW,225,5.8,5.8,63,0.00,,OVC,0.00,VWS V14.00,2013-01-20 05:03:00,
2013-01-20 00:08:00,39.9,28.3,29.94,WSW,248,9.6,9.6,63,0.00,,OVC,0.00,VWS V14.00,2013-01-20 05:08:00,
2013-01-20 00:13:00,39.9,28.3,29.93,SW,225,9.6,9.6,63,0.00,,OVC,0.00,VWS V14.00,2013-01-20 05:13:00,
2013-01-20 00:18:00,39.9,28.3,29.93,SSW,202,0.8,0.8,63,0.00,,OVC,0.00,VWS V14.00,2013-01-20 05:18:00,
2013-01-20 00:23:00,39.9,28.3,29.93,SW,225,1.7,1.7,63,0.00,,OVC,0.00,VWS V14.00,2013-01-20 05:23:00,
2013-01-20 00:28:00,39.9,28.3,29.93,SW,225,2.6,2.6,63,0.00,,OVC,0.00,VWS V14.00,2013-01-20 05:28:00,
2013-01-20 00:33:00,39.9,28.7,29.93,West,270,3.8,3.8,64,0.00,,OVC,0.00,VWS V14.00,2013-01-20 05:33:00,
2013-01-20 00:38:00,39.9,28.7,29.93,WSW,248,5.8,5.8,64,0.00,,OVC,0.00,VWS V14.00,2013-01-20 05:38:00,
2013-01-20 00:43:00,39.9,28.7,29.92,SW,225,8.2,8.2,64,0.00,,OVC,0.00,VWS V14.00,2013-01-20 05:43:00,
2013-01-20 00:48:00,39.7,28.5,29.93,WSW,248,5.5,5.5,64,0.00,,OVC,0.00,VWS V14.00,2013-01-20 05:48:00,
2013-01-20 00:53:00,39.7,28.5,29.92,South,180,3.5,3.5,64,0.00,,OVC,0.00,VWS V14.00,2013-01-20 05:53:00,
2013-01-20 00:58:00,39.7,28.5,29.92,SW,225,5.1,5.1,64,0.00,,OVC,0.00,VWS V14.00,2013-01-20 05:58:00,
2013-01-20 01:03:00,39.7,28.5,29.91,SSW,202,3.8,3.8,64,0.00,,OVC,0.00,VWS V14.00,2013-01-20 06:03:00,
2013-01-20 01:08:00,39.5,28.4,29.91,SW,225,4.6,4.6,64,0.00,,OVC,0.00,VWS V14.00,2013-01-20 06:08:00,
2013-01-20 01:13:00,39.3,28.2,29.90,SW,225,3.5,3.5,64,0.00,,OVC,0.00,VWS V14.00,2013-01-20 06:13:00,
2013-01-20 01:18:00,39.3,28.5,29.90,SW,225,8.2,8.2,65,0.00,,OVC,0.00,VWS V14.00,2013-01-20 06:18:00,
2013-01-20 01:23:00,39.3,28.5,29.90,West,270,2.6,2.6,65,0.00,,OVC,0.00,VWS V14.00,2013-01-20 06:23:00,
2013-01-20 01:28:00,39.3,28.5,29.90,West,270,1.7,1.7,65,0.00,,OVC,0.00,VWS V14.00,2013-01-20 06:28:00,
2013-01-20 01:33:00,39.0,28.2,29.89,WSW,248,4.0,4.0,65,0.00,,OVC,0.00,VWS V14.00,2013-01-20 06:33:00,
2013-01-20 01:38:00,39.0,28.2,29.88,WSW,248,0.6,0.6,65,0.00,,OVC,0.00,VWS V14.00,2013-01-20 06:38:00,
2013-01-20 01:43:00,39.0,28.2,29.88,SW,225,2.0,2.0,65,0.00,,OVC,0.00,VWS V14.00,2013-01-20 06:43:00,
2013-01-20 01:48:00,39.0,28.6,29.89,SW,225,7.3,7.3,66,0.00,,OVC,0.00,VWS V14.00,2013-01-20 06:48:00,
2013-01-20 01:53:00,39.0,28.6,29.88,SW,225,3.1,3.1,66,0.00,,OVC,0.00,VWS V14.00,2013-01-20 06:53:00,
2013-01-20 01:58:00,39.0,28.6,29.88,WSW,248,4.6,4.6,66,0.00,,OVC,0.00,VWS V14.00,2013-01-20 06:58:00,
2013-01-20 02:03:00,39.0,28.6,29.88,WSW,248,6.2,6.2,66,0.00,,OVC,0.00,VWS V14.00,2013-01-20 07:03:00,
2013-01-20 02:08:00,39.0,28.6,29.88,SW,225,6.0,6.0,66,0.00,,OVC,0.00,VWS V14.00,2013-01-20 07:08:00,
2013-01-20 02:13:00,39.0,28.6,29.87,WSW,248,2.6,2.6,66,0.00,,OVC,0.00,VWS V14.00,2013-01-20 07:13:00,
2013-01-20 02:18:00,39.0,28.6,29.88,SW,225,0.0,0.0,66,0.00,,OVC,0.00,VWS V14.00,2013-01-20 07:18:00,
2013-01-20 02:23:00,39.0,28.6,29.88,West,270,6.9,6.9,66,0.00,,OVC,0.00,VWS V14.00,2013-01-20 07:23:00,
2013-01-20 02:28:00,39.0,28.6,29.87,SW,225,7.3,7.3,66,0.00,,OVC,0.00,VWS V14.00,2013-01-20 07:28:00,
2013-01-20 02:33:00,39.0,28.6,29.87,WSW,248,2.0,2.0,66,0.00,,OVC,0.00,VWS V14.00,2013-01-20 07:33:00,
2013-01-20 02:38:00,39.2,28.8,29.87,SW,225,0.0,0.0,66,0.00,,OVC,0.00,VWS V14.00,2013-01-20 07:38:00,
2013-01-20 02:43:00,39.0,28.6,29.87,WSW,248,0.2,0.2,66,0.00,,OVC,0.00,VWS V14.00,2013-01-20 07:43:00,
2013-01-20 02:48:00,39.0,28.6,29.87,WSW,248,5.3,5.3,66,0.00,,OVC,0.00,VWS V14.00,2013-01-20 07:48:00,
2013-01-20 02:53:00,39.0,28.6,29.87,WSW,248,3.3,3.3,66,0.00,,OVC,0.00,VWS V14.00,2013-01-20 07:53:00,
2013-01-20 02:58:00,38.8,28.8,29.87,SW,225,1.1,1.1,67,0.00,,OVC,0.00,VWS V14.00,2013-01-20 07:58:00,
2013-01-20 03:03:00,39.0,28.6,29.86,WSW,248,2.9,2.9,66,0.00,,OVC,0.00,VWS V14.00,2013-01-20 08:03:00,
2013-01-20 03:08:00,38.8,28.4,29.86,SW,225,1.3,1.3,66,0.00,,OVC,0.00,VWS V14.00,2013-01-20 08:08:00,
2013-01-20 03:13:00,38.8,28.4,29.86,SSW,202,2.2,2.2,66,0.00,,OVC,0.00,VWS V14.00,2013-01-20 08:13:00,
2013-01-20 03:18:00,38.8,28.4,29.85,WSW,248,0.6,0.6,66,0.00,,OVC,0.00,VWS V14.00,2013-01-20 08:18:00,
2013-01-20 03:23:00,38.8,28.4,29.85,WSW,248,0.2,0.2,66,0.00,,OVC,0.00,VWS V14.00,2013-01-20 08:23:00,
2013-01-20 03:28:00,38.8,28.4,29.85,West,270,0.0,0.0,66,0.00,,OVC,0.00,VWS V14.00,2013-01-20 08:28:00,
2013-01-20 03:33:00,38.8,28.4,29.85,SW,225,3.1,3.1,66,0.00,,OVC,0.00,VWS V14.00,2013-01-20 08:33:00,
2013-01-20 03:38:00,38.8,28.8,29.85,WSW,248,2.2,2.2,67,0.00,,OVC,0.00,VWS V14.00,2013-01-20 08:38:00,
2013-01-20 03:43:00,38.8,28.8,29.85,WSW,248,0.6,0.6,67,0.00,,OVC,0.00,VWS V14.00,2013-01-20 08:43:00,
2013-01-20 03:48:00,38.8,28.4,29.85,WSW,248,7.6,7.6,66,0.00,,OVC,0.00,VWS V14.00,2013-01-20 08:48:00,
2013-01-20 03:53:00,39.0,29.0,29.85,SW,225,2.0,2.0,67,0.00,,OVC,0.00,VWS V14.00,2013-01-20 08:53:00,
2013-01-20 03:58:00,39.2,29.2,29.85,WSW,248,2.6,2.6,67,0.00,,OVC,0.00,VWS V14.00,2013-01-20 08:58:00,
2013-01-20 04:03:00,39.3,29.3,29.84,SW,225,4.9,4.9,67,0.00,,OVC,0.00,VWS V14.00,2013-01-20 09:03:00,
2013-01-20 04:08:00,39.3,28.9,29.84,SW,225,2.6,2.6,66,0.00,,OVC,0.00,VWS V14.00,2013-01-20 09:08:00,
2013-01-20 04:13:00,39.3,28.9,29.83,WSW,248,7.1,7.1,66,0.00,,OVC,0.00,VWS V14.00,2013-01-20 09:13:00,
2013-01-20 04:18:00,39.3,28.9,29.83,SW,225,2.9,2.9,66,0.00,,OVC,0.00,VWS V14.00,2013-01-20 09:18:00,
2013-01-20 04:23:00,39.3,28.9,29.83,WSW,248,4.9,4.9,66,0.00,,OVC,0.00,VWS V14.00,2013-01-20 09:23:00,
2013-01-20 04:28:00,39.3,28.9,29.83,SSW,202,2.0,2.0,66,0.00,,OVC,0.00,VWS V14.00,2013-01-20 09:28:00,
2013-01-20 04:33:00,39.2,28.8,29.83,SSW,202,0.6,0.6,66,0.00,,OVC,0.00,VWS V14.00,2013-01-20 09:33:00,
2013-01-20 04:38:00,39.2,28.8,29.83,WSW,248,2.6,2.6,66,0.00,,OVC,0.00,VWS V14.00,2013-01-20 09:38:00,
2013-01-20 04:43:00,39.3,29.3,29.83,SW,225,2.6,2.6,67,0.00,,OVC,0.00,VWS V14.00,2013-01-20 09:43:00,
2013-01-20 04:48:00,39.3,28.9,29.83,WSW,248,2.4,2.4,66,0.00,,OVC,0.00,VWS V14.00,2013-01-20 09:48:00,
2013-01-20 04:53:00,39.3,28.9,29.82,WSW,248,1.7,1.7,66,0.00,,OVC,0.00,VWS V14.00,2013-01-20 09:53:00,
2013-01-20 04:58:00,39.3,28.9,29.82,SW,225,0.0,0.0,66,0.00,,OVC,0.00,VWS V14.00,2013-01-20 09:58:00,
2013-01-20 05:03:00,39.3,28.9,29.82,WSW,248,0.8,0.8,66,0.00,,OVC,0.00,VWS V14.00,2013-01-20 10:03:00,
2013-01-20 05:08:00,39.2,28.8,29.82,West,270,2.4,2.4,66,0.00,,OVC,0.00,VWS V14.00,2013-01-20 10:08:00,
2013-01-20 05:13:00,39.3,29.3,29.81,SSW,202,4.4,4.4,67,0.00,,OVC,0.00,VWS V14.00,2013-01-20 10:13:00,
2013-01-20 05:18:00,39.3,28.9,29.81,SW,225,1.3,1.3,66,0.00,,OVC,0.00,VWS V14.00,2013-01-20 10:18:00,
2013-01-20 05:23:00,39.3,28.9,29.81,WSW,248,7.1,7.1,66,0.00,,OVC,0.00,VWS V14.00,2013-01-20 10:23:00,
2013-01-20 05:28:00,39.7,29.3,29.81,SW,225,3.1,3.1,66,0.00,,OVC,0.00,VWS V14.00,2013-01-20 10:28:00,
2013-01-20 05:33:00,39.7,29.3,29.80,SSW,202,3.5,3.5,66,0.00,,OVC,0.00,VWS V14.00,2013-01-20 10:33:00,
2013-01-20 05:38:00,39.7,29.3,29.80,SSW,202,10.9,10.9,66,0.00,,OVC,0.00,VWS V14.00,2013-01-20 10:38:00,
2013-01-20 05:43:00,39.7,29.3,29.80,West,270,3.5,3.5,66,0.00,,OVC,0.00,VWS V14.00,2013-01-20 10:43:00,
2013-01-20 05:48:00,39.7,29.3,29.80,SW,225,3.3,3.3,66,0.00,,OVC,0.00,VWS V14.00,2013-01-20 10:48:00,
2013-01-20 05:53:00,39.7,29.3,29.80,WSW,248,2.4,2.4,66,0.00,,OVC,0.00,VWS V14.00,2013-01-20 10:53:00,
2013-01-20 05:58:00,39.7,29.3,29.80,SW,225,7.8,7.8,66,0.00,,OVC,0.00,VWS V14.00,2013-01-20 10:58:00,
2013-01-20 06:03:00,39.7,29.3,29.80,SW,225,0.0,0.0,66,0.00,,OVC,0.00,VWS V14.00,2013-01-20 11:03:00,
2013-01-20 06:08:00,39.7,28.9,29.80,SW,225,1.1,1.1,65,0.00,,OVC,0.00,VWS V14.00,2013-01-20 11:08:00,
2013-01-20 06:13:00,39.7,28.9,29.79,SSW,202,8.2,8.2,65,0.00,,OVC,0.00,VWS V14.00,2013-01-20 11:13:00,
2013-01-20 06:18:00,39.7,28.9,29.79,SW,225,6.0,6.0,65,0.00,,OVC,0.00,VWS V14.00,2013-01-20 11:18:00,
2013-01-20 06:23:00,39.9,29.1,29.79,SW,225,3.8,3.8,65,0.00,,OVC,0.00,VWS V14.00,2013-01-20 11:23:00,
2013-01-20 06:28:00,39.9,29.1,29.79,SW,225,4.4,4.4,65,0.00,,OVC,0.00,VWS V14.00,2013-01-20 11:28:00,
2013-01-20 06:33:00,39.9,29.1,29.79,WSW,248,2.6,2.6,65,0.00,,OVC,0.00,VWS V14.00,2013-01-20 11:33:00,
2013-01-20 06:38:00,39.9,29.1,29.79,WSW,248,7.1,7.1,65,0.00,,OVC,0.00,VWS V14.00,2013-01-20 11:38:00,
2013-01-20 06:43:00,39.9,29.1,29.79,WSW,248,4.4,4.4,65,0.00,,OVC,0.00,VWS V14.00,2013-01-20 11:43:00,
2013-01-20 06:48:00,39.9,29.1,29.79,SW,225,6.4,6.4,65,0.00,,OVC,0.00,VWS V14.00,2013-01-20 11:48:00,
2013-01-20 06:53:00,39.9,29.1,29.79,SW,225,5.1,5.1,65,0.00,,OVC,0.00,VWS V14.00,2013-01-20 11:53:00,
2013-01-20 06:58:00,39.9,29.1,29.78,SW,225,6.7,6.7,65,0.00,,OVC,0.00,VWS V14.00,2013-01-20 11:58:00,
2013-01-20 07:03:00,40.1,29.3,29.79,WSW,248,7.1,7.1,65,0.00,,OVC,0.00,VWS V14.00,2013-01-20 12:03:00,
2013-01-20 07:08:00,39.9,28.7,29.79,SSW,202,2.6,2.6,64,0.00,,OVC,0.00,VWS V14.00,2013-01-20 12:08:00,
2013-01-20 07:13:00,40.2,29.0,29.79,WSW,248,4.4,4.4,64,0.00,,OVC,0.00,VWS V14.00,2013-01-20 12:13:00,
2013-01-20 07:18:00,40.2,29.0,29.79,SW,225,1.7,1.7,64,0.00,,OVC,0.00,VWS V14.00,2013-01-20 12:18:00,
2013-01-20 07:23:00,40.2,29.0,29.79,SW,225,2.4,2.4,64,0.00,,OVC,0.00,VWS V14.00,2013-01-20 12:23:00,
2013-01-20 07:28:00,40.4,29.2,29.78,WSW,248,0.2,0.2,64,0.00,,OVC,0.00,VWS V14.00,2013-01-20 12:28:00,
2013-01-20 07:33:00,40.6,29.4,29.79,WNW,292,6.4,6.4,64,0.00,,OVC,0.00,VWS V14.00,2013-01-20 12:33:00,
2013-01-20 07:38:00,40.8,29.6,29.78,WSW,248,3.8,3.8,64,0.00,,OVC,0.00,VWS V14.00,2013-01-20 12:38:00,
2013-01-20 07:43:00,40.8,29.6,29.78,SW,225,7.8,7.8,64,0.00,,OVC,0.00,VWS V14.00,2013-01-20 12:43:00,
2013-01-20 07:48:00,40.8,29.2,29.78,SW,225,1.3,1.3,63,0.00,,OVC,0.00,VWS V14.00,2013-01-20 12:48:00,
2013-01-20 07:53:00,41.1,29.5,29.78,WSW,248,1.7,1.7,63,0.00,,OVC,0.00,VWS V14.00,2013-01-20 12:53:00,
2013-01-20 07:58:00,41.5,29.5,29.78,SW,225,2.6,2.6,62,0.00,,OVC,0.00,VWS V14.00,2013-01-20 12:58:00,
2013-01-20 08:03:00,41.9,29.9,29.79,SSW,202,4.0,4.0,62,0.00,,OVC,0.00,VWS V14.00,2013-01-20 13:03:00,
2013-01-20 08:08:00,42.4,30.3,29.78,WSW,248,0.4,0.4,62,0.00,,OVC,0.00,VWS V14.00,2013-01-20 13:08:00,
2013-01-20 08:13:00,42.6,30.1,29.78,West,270,1.1,1.1,61,0.00,,OVC,0.00,VWS V14.00,2013-01-20 13:13:00,
2013-01-20 08:18:00,43.3,30.4,29.78,West,270,4.2,4.2,60,0.00,,OVC,0.00,VWS V14.00,2013-01-20 13:18:00,
2013-01-20 08:23:00,43.7,30.7,29.78,WSW,248,6.9,6.9,60,0.00,,OVC,0.00,VWS V14.00,2013-01-20 13:23:00,
2013-01-20 08:28:00,44.2,30.8,29.78,West,270,2.0,2.0,59,0.00,,OVC,0.00,VWS V14.00,2013-01-20 13:28:00,
2013-01-20 08:33:00,44.9,31.0,29.78,SW,225,5.5,5.5,58,0.00,,OVC,0.00,VWS V14.00,2013-01-20 13:33:00,
2013-01-20 08:38:00,45.3,31.0,29.78,WSW,248,6.7,6.7,57,0.00,,OVC,0.00,VWS V14.00,2013-01-20 13:38:00,
2013-01-20 08:43:00,45.6,31.3,29.78,SW,225,5.8,5.8,57,0.00,,OVC,0.00,VWS V14.00,2013-01-20 13:43:00,
2013-01-20 08:48:00,46.0,31.2,29.78,WSW,248,3.1,3.1,56,0.00,,OVC,0.00,VWS V14.00,2013-01-20 13:48:00,
2013-01-20 08:53:00,46.2,31.4,29.78,WSW,248,5.5,5.5,56,0.00,,OVC,0.00,VWS V14.00,2013-01-20 13:53:00,
2013-01-20 08:58:00,46.7,31.9,29.78,WSW,248,6.9,6.9,56,0.00,,OVC,0.00,VWS V14.00,2013-01-20 13:58:00,
2013-01-20 09:03:00,47.1,31.8,29.78,WSW,248,0.0,0.0,55,0.00,,OVC,0.00,VWS V14.00,2013-01-20 14:03:00,
2013-01-20 09:08:00,47.8,32.4,29.78,WSW,248,4.2,4.2,55,0.00,,OVC,0.00,VWS V14.00,2013-01-20 14:08:00,
2013-01-20 09:13:00,48.2,32.3,29.78,WSW,248,1.3,1.3,54,0.00,,OVC,0.00,VWS V14.00,2013-01-20 14:13:00,
2013-01-20 09:18:00,48.9,32.5,29.79,SW,225,3.5,3.5,53,0.00,,OVC,0.00,VWS V14.00,2013-01-20 14:18:00,
2013-01-20 09:23:00,49.4,32.5,29.79,WSW,248,1.3,1.3,52,0.00,,OVC,0.00,VWS V14.00,2013-01-20 14:23:00,
2013-01-20 09:28:00,49.8,32.9,29.80,WSW,248,10.5,10.5,52,0.00,,OVC,0.00,VWS V14.00,2013-01-20 14:28:00,
2013-01-20 09:33:00,50.1,32.7,29.80,WSW,248,6.0,6.0,51,0.00,,OVC,0.00,VWS V14.00,2013-01-20 14:33:00,
2013-01-20 09:38:00,50.7,33.2,29.80,SW,225,0.0,0.0,51,0.00,,OVC,0.00,VWS V14.00,2013-01-20 14:38:00,
2013-01-20 09:43:00,51.4,33.4,29.80,SW,225,10.2,10.2,50,0.00,,OVC,0.00,VWS V14.00,2013-01-20 14:43:00,
2013-01-20 09:48:00,51.8,33.3,29.80,SW,225,8.2,8.2,49,0.00,,OVC,0.00,VWS V14.00,2013-01-20 14:48:00,
2013-01-20 09:53:00,52.1,33.0,29.80,West,270,2.4,2.4,48,0.00,,OVC,0.00,VWS V14.00,2013-01-20 14:53:00,
2013-01-20 09:58:00,52.7,33.6,29.80,SW,225,3.5,3.5,48,0.00,,OVC,0.00,VWS V14.00,2013-01-20 14:58:00,
2013-01-20 10:03:00,52.8,33.2,29.80,WNW,292,2.2,2.2,47,0.00,,OVC,0.00,VWS V14.00,2013-01-20 15:03:00,
2013-01-20 10:08:00,53.4,33.7,29.79,WSW,248,7.1,7.1,47,0.00,,OVC,0.00,VWS V14.00,2013-01-20 15:08:00,
2013-01-20 10:13:00,54.1,34.3,29.79,SW,225,1.7,1.7,47,0.00,,OVC,0.00,VWS V14.00,2013-01-20 15:13:00,
2013-01-20 10:18:00,54.6,34.2,29.79,SW,225,2.4,2.4,46,0.00,,OVC,0.00,VWS V14.00,2013-01-20 15:18:00,
2013-01-20 10:23:00,54.6,34.2,29.79,West,270,2.6,2.6,46,0.00,,OVC,0.00,VWS V14.00,2013-01-20 15:23:00,
2013-01-20 10:28:00,55.2,34.8,29.79,West,270,0.0,0.0,46,0.00,,OVC,0.00,VWS V14.00,2013-01-20 15:28:00,
2013-01-20 10:33:00,55.4,34.4,29.78,SW,225,2.6,2.6,45,0.00,,OVC,0.00,VWS V14.00,2013-01-20 15:33:00,
2013-01-20 10:38:00,55.9,34.9,29.78,WNW,292,1.5,1.5,45,0.00,,OVC,0.00,VWS V14.00,2013-01-20 15:38:00,
2013-01-20 10:43:00,56.1,34.5,29.78,SW,225,3.1,3.1,44,0.00,,OVC,0.00,VWS V14.00,2013-01-20 15:43:00,
2013-01-20 10:48:00,56.4,34.2,29.78,West,270,4.0,4.0,43,0.00,,OVC,0.00,VWS V14.00,2013-01-20 15:48:00,
2013-01-20 10:53:00,56.8,35.1,29.77,West,270,3.3,3.3,44,0.00,,OVC,0.00,VWS V14.00,2013-01-20 15:53:00,
2013-01-20 10:58:00,57.3,35.0,29.77,West,270,4.6,4.6,43,0.00,,OVC,0.00,VWS V14.00,2013-01-20 15:58:00,
2013-01-20 11:03:00,57.5,34.6,29.77,WSW,248,7.6,7.6,42,0.00,,OVC,0.00,VWS V14.00,2013-01-20 16:03:00,
2013-01-20 11:08:00,57.9,34.4,29.77,WSW,248,3.5,3.5,41,0.00,,OVC,0.00,VWS V14.00,2013-01-20 16:08:00,
2013-01-20 11:13:00,58.2,35.2,29.77,SSE,158,7.1,7.1,42,0.00,,OVC,0.00,VWS V14.00,2013-01-20 16:13:00,
2013-01-20 11:18:00,58.6,34.4,29.77,WNW,292,15.8,15.8,40,0.00,,OVC,0.00,VWS V14.00,2013-01-20 16:18:00,
2013-01-20 11:23:00,58.8,35.2,29.76,WSW,248,0.0,0.0,41,0.00,,OVC,0.00,VWS V14.00,2013-01-20 16:23:00,
2013-01-20 11:28:00,58.6,35.0,29.75,SW,225,6.4,6.4,41,0.00,,OVC,0.00,VWS V14.00,2013-01-20 16:28:00,
2013-01-20 11:33:00,58.6,35.0,29.75,NW,315,8.2,8.2,41,0.00,,OVC,0.00,VWS V14.00,2013-01-20 16:33:00,
2013-01-20 11:38:00,58.8,35.2,29.74,WSW,248,4.6,4.6,41,0.00,,OVC,0.00,VWS V14.00,2013-01-20 16:38:00,
2013-01-20 11:43:00,59.1,34.8,29.74,SW,225,5.1,5.1,40,0.00,,OVC,0.00,VWS V14.00,2013-01-20 16:43:00,
2013-01-20 11:48:00,59.3,35.6,29.74,SW,225,5.3,5.3,41,0.00,,OVC,0.00,VWS V14.00,2013-01-20 16:48:00,
2013-01-20 11:53:00,59.7,35.4,29.74,South,180,9.3,9.3,40,0.00,,OVC,0.00,VWS V14.00,2013-01-20 16:53:00,
2013-01-20 11:58:00,59.5,33.9,29.73,West,270,4.2,4.2,38,0.00,,OVC,0.00,VWS V14.00,2013-01-20 16:58:00,
2013-01-20 12:03:00,59.1,34.2,29.73,SW,225,6.7,6.7,39,0.00,,OVC,0.00,VWS V14.00,2013-01-20 17:03:00,
2013-01-20 12:08:00,59.0,34.7,29.73,West,270,6.9,6.9,40,0.00,,OVC,0.00,VWS V14.00,2013-01-20 17:08:00,
2013-01-20 12:13:00,58.8,33.9,29.73,WSW,248,2.2,2.2,39,0.00,,OVC,0.00,VWS V14.00,2013-01-20 17:13:00,
2013-01-20 12:18:00,58.8,33.9,29.73,West,270,1.1,1.1,39,0.00,,OVC,0.00,VWS V14.00,2013-01-20 17:18:00,
2013-01-20 12:23:00,58.8,33.9,29.73,SW,225,6.2,6.2,39,0.00,,OVC,0.00,VWS V14.00,2013-01-20 17:23:00,
2013-01-20 12:28:00,58.2,33.4,29.73,West,270,3.3,3.3,39,0.00,,OVC,0.00,VWS V14.00,2013-01-20 17:28:00,
2013-01-20 12:33:00,58.2,33.4,29.73,NW,315,11.4,11.4,39,0.00,,OVC,0.00,VWS V14.00,2013-01-20 17:33:00,
2013-01-20 12:38:00,57.7,32.9,29.73,WNW,292,2.4,2.4,39,0.00,,OVC,0.00,VWS V14.00,2013-01-20 17:38:00,
2013-01-20 12:43:00,57.7,33.6,29.72,NW,315,3.8,3.8,40,0.00,,OVC,0.00,VWS V14.00,2013-01-20 17:43:00,
2013-01-20 12:48:00,57.9,33.8,29.73,WSW,248,8.2,8.2,40,0.00,,OVC,0.00,VWS V14.00,2013-01-20 17:48:00,
2013-01-20 12:53:00,57.9,33.8,29.73,SW,225,14.7,14.7,40,0.00,,OVC,0.00,VWS V14.00,2013-01-20 17:53:00,
2013-01-20 12:58:00,57.9,33.8,29.72,WNW,292,2.6,2.6,40,0.00,,OVC,0.00,VWS V14.00,2013-01-20 17:58:00,
2013-01-20 13:03:00,58.1,33.3,29.72,WNW,292,2.0,2.0,39,0.00,,OVC,0.00,VWS V14.00,2013-01-20 18:03:00,
2013-01-20 13:08:00,58.1,33.3,29.73,SW,225,16.5,16.5,39,0.00,,OVC,0.00,VWS V14.00,2013-01-20 18:08:00,
2013-01-20 13:13:00,57.9,33.8,29.73,WSW,248,5.5,5.5,40,0.00,,OVC,0.00,VWS V14.00,2013-01-20 18:13:00,
2013-01-20 13:18:00,57.9,33.8,29.72,SW,225,4.6,4.6,40,0.00,,OVC,0.00,VWS V14.00,2013-01-20 18:18:00,
2013-01-20 13:23:00,57.7,32.9,29.72,West,270,2.4,2.4,39,0.00,,OVC,0.00,VWS V14.00,2013-01-20 18:23:00,
2013-01-20 13:28:00,57.3,32.6,29.72,West,270,3.5,3.5,39,0.00,,OVC,0.00,VWS V14.00,2013-01-20 18:28:00,
2013-01-20 13:33:00,57.2,32.5,29.72,WSW,248,7.3,7.3,39,0.00,,OVC,0.00,VWS V14.00,2013-01-20 18:33:00,
2013-01-20 13:38:00,57.3,32.6,29.72,WSW,248,0.0,0.0,39,0.00,,OVC,0.00,VWS V14.00,2013-01-20 18:38:00,
2013-01-20 13:43:00,57.2,32.5,29.73,WSW,248,2.9,2.9,39,0.00,,OVC,0.00,VWS V14.00,2013-01-20 18:43:00,
2013-01-20 13:48:00,57.3,32.6,29.73,WSW,248,6.0,6.0,39,0.00,,OVC,0.00,VWS V14.00,2013-01-20 18:48:00,
2013-01-20 13:52:00,57.3,32.6,29.73,West,270,4.6,4.6,39,0.00,,OVC,0.00,VWS V14.00,2013-01-20 18:52:00,
2013-01-20 13:57:00,56.8,32.8,29.72,WSW,248,0.0,0.0,40,0.00,,OVC,0.00,VWS V14.00,2013-01-20 18:57:00,
2013-01-20 14:02:00,56.8,32.8,29.73,WSW,248,0.0,0.0,40,0.00,,OVC,0.00,VWS V14.00,2013-01-20 19:02:00,
2013-01-20 14:07:00,56.8,32.8,29.73,WSW,248,4.2,4.2,40,0.00,,OVC,0.00,VWS V14.00,2013-01-20 19:07:00,
2013-01-20 14:12:00,56.8,33.4,29.73,West,270,0.0,0.0,41,0.00,,OVC,0.00,VWS V14.00,2013-01-20 19:12:00,
2013-01-20 14:17:00,56.6,33.2,29.73,West,270,5.8,5.8,41,0.00,,OVC,0.00,VWS V14.00,2013-01-20 19:17:00,
2013-01-20 14:22:00,56.3,32.9,29.74,NNW,338,0.0,0.0,41,0.00,,OVC,0.00,VWS V14.00,2013-01-20 19:22:00,
2013-01-20 14:27:00,55.9,32.6,29.74,WSW,248,5.5,5.5,41,0.00,,OVC,0.00,VWS V14.00,2013-01-20 19:27:00,
2013-01-20 14:32:00,55.9,32.6,29.74,West,270,6.9,6.9,41,0.00,,OVC,0.00,VWS V14.00,2013-01-20 19:32:00,
2013-01-20 14:37:00,55.9,32.6,29.74,West,270,8.2,8.2,41,0.00,,OVC,0.00,VWS V14.00,2013-01-20 19:37:00,
2013-01-20 14:42:00,55.7,32.4,29.74,SW,225,4.0,4.0,41,0.00,,OVC,0.00,VWS V14.00,2013-01-20 19:42:00,
2013-01-20 14:47:00,55.7,32.4,29.75,West,270,1.1,1.1,41,0.00,,OVC,0.00,VWS V14.00,2013-01-20 19:47:00,
2013-01-20 14:52:00,56.1,32.7,29.75,West,270,7.8,7.8,41,0.00,,OVC,0.00,VWS V14.00,2013-01-20 19:52:00,
2013-01-20 14:57:00,56.1,32.1,29.75,SW,225,4.6,4.6,40,0.00,,OVC,0.00,VWS V14.00,2013-01-20 19:57:00,
2013-01-20 15:02:00,55.9,32.0,29.76,NW,315,4.0,4.0,40,0.00,,OVC,0.00,VWS V14.00,2013-01-20 20:02:00,
2013-01-20 15:07:00,55.9,32.0,29.76,NE,45,3.1,3.1,40,0.00,,OVC,0.00,VWS V14.00,2013-01-20 20:07:00,
2013-01-20 15:12:00,55.9,32.0,29.76,NNW,338,6.0,6.0,40,0.00,,OVC,0.00,VWS V14.00,2013-01-20 20:12:00,
2013-01-20 15:17:00,55.9,32.0,29.77,West,270,7.1,7.1,40,0.00,,OVC,0.00,VWS V14.00,2013-01-20 20:17:00,
2013-01-20 15:22:00,55.9,32.6,29.76,SW,225,2.6,2.6,41,0.00,,OVC,0.00,VWS V14.00,2013-01-20 20:22:00,
2013-01-20 15:27:00,55.7,31.8,29.77,WSW,248,5.1,5.1,40,0.00,,OVC,0.00,VWS V14.00,2013-01-20 20:27:00,
2013-01-20 15:32:00,55.4,32.1,29.77,WSW,248,0.0,0.0,41,0.00,,OVC,0.00,VWS V14.00,2013-01-20 20:32:00,
2013-01-20 15:37:00,55.0,31.8,29.77,NW,315,5.5,5.5,41,0.00,,OVC,0.00,VWS V14.00,2013-01-20 20:37:00,
2013-01-20 15:42:00,54.8,31.0,29.77,SSW,202,15.2,15.2,40,0.00,,OVC,0.00,VWS V14.00,2013-01-20 20:42:00,
2013-01-20 15:47:00,54.5,30.7,29.77,WSW,248,1.5,1.5,40,0.00,,OVC,0.00,VWS V14.00,2013-01-20 20:47:00,
2013-01-20 15:53:00,54.1,30.3,29.78,West,270,6.7,6.7,40,0.00,,OVC,0.00,VWS V14.00,2013-01-20 20:53:00,
2013-01-20 15:58:00,53.7,29.4,29.79,West,270,2.0,2.0,39,0.00,,OVC,0.00,VWS V14.00,2013-01-20 20:58:00,
2013-01-20 16:03:00,53.4,28.5,29.79,WNW,292,5.5,5.5,38,0.00,,OVC,0.00,VWS V14.00,2013-01-20 21:03:00,
2013-01-20 16:07:00,53.2,27.6,29.79,NNW,338,1.5,1.5,37,0.00,,OVC,0.00,VWS V14.00,2013-01-20 21:07:00,
2013-01-20 16:12:00,52.8,27.3,29.80,SSW,202,2.0,2.0,37,0.00,,OVC,0.00,VWS V14.00,2013-01-20 21:12:00,
2013-01-20 16:18:00,52.3,26.8,29.80,NNW,338,12.7,12.7,37,0.00,,OVC,0.00,VWS V14.00,2013-01-20 21:18:00,
2013-01-20 16:23:00,52.1,26.0,29.80,NE,45,6.0,6.0,36,0.00,,OVC,0.00,VWS V14.00,2013-01-20 21:23:00,
2013-01-20 16:28:00,51.6,24.9,29.81,WNW,292,3.8,3.8,35,0.00,,OVC,0.00,VWS V14.00,2013-01-20 21:28:00,
2013-01-20 16:33:00,51.2,24.5,29.81,NNE,22,0.0,0.0,35,0.00,,OVC,0.00,VWS V14.00,2013-01-20 21:33:00,
2013-01-20 16:38:00,50.7,24.1,29.81,WNW,292,0.8,0.8,35,0.00,,OVC,0.00,VWS V14.00,2013-01-20 21:38:00,
2013-01-20 16:43:00,50.5,23.2,29.82,West,270,7.6,7.6,34,0.00,,OVC,0.00,VWS V14.00,2013-01-20 21:43:00,
2013-01-20 16:48:00,50.3,23.0,29.82,NW,315,5.1,5.1,34,0.00,,OVC,0.00,VWS V14.00,2013-01-20 21:48:00,
2013-01-20 16:53:00,50.1,23.5,29.82,WNW,292,4.4,4.4,35,0.00,,OVC,0.00,VWS V14.00,2013-01-20 21:53:00,
2013-01-20 16:58:00,49.6,23.1,29.82,SSW,202,0.0,0.0,35,0.00,,OVC,0.00,VWS V14.00,2013-01-20 21:58:00,
2013-01-20 17:03:00,49.2,22.7,29.83,West,270,4.6,4.6,35,0.00,,OVC,0.00,VWS V14.00,2013-01-20 22:03:00,
2013-01-20 17:08:00,48.9,22.5,29.83,WNW,292,1.5,1.5,35,0.00,,OVC,0.00,VWS V14.00,2013-01-20 22:08:00,
2013-01-20 17:13:00,48.7,22.3,29.84,West,270,0.0,0.0,35,0.00,,OVC,0.00,VWS V14.00,2013-01-20 22:13:00,
2013-01-20 17:18:00,48.3,21.9,29.85,NNW,338,0.0,0.0,35,0.00,,OVC,0.00,VWS V14.00,2013-01-20 22:18:00,
2013-01-20 17:23:00,48.0,21.7,29.85,NW,315,1.5,1.5,35,0.00,,OVC,0.00,VWS V14.00,2013-01-20 22:23:00,
2013-01-20 17:28:00,47.8,20.8,29.85,NW,315,3.5,3.5,34,0.00,,OVC,0.00,VWS V14.00,2013-01-20 22:28:00,
2013-01-20 17:33:00,47.4,20.5,29.86,NW,315,0.0,0.0,34,0.00,,OVC,0.00,VWS V14.00,2013-01-20 22:33:00,
2013-01-20 17:38:00,47.1,20.2,29.86,NNE,22,3.5,3.5,34,0.00,,OVC,0.00,VWS V14.00,2013-01-20 22:38:00,
2013-01-20 17:43:00,46.7,19.8,29.87,North,0,5.5,5.5,34,0.00,,OVC,0.00,VWS V14.00,2013-01-20 22:43:00,
2013-01-20 17:48:00,46.5,19.7,29.87,West,270,0.6,0.6,34,0.00,,OVC,0.00,VWS V14.00,2013-01-20 22:48:00,
2013-01-20 17:53:00,46.2,18.7,29.87,WNW,292,4.0,4.0,33,0.00,,OVC,0.00,VWS V14.00,2013-01-20 22:53:00,
2013-01-20 17:58:00,46.2,18.7,29.87,WSW,248,0.0,0.0,33,0.00,,OVC,0.00,VWS V14.00,2013-01-20 22:58:00,
2013-01-20 18:03:00,45.8,19.0,29.88,WNW,292,0.0,0.0,34,0.00,,OVC,0.00,VWS V14.00,2013-01-20 23:03:00,
2013-01-20 18:08:00,45.6,18.2,29.88,West,270,14.7,14.7,33,0.00,,OVC,0.00,VWS V14.00,2013-01-20 23:08:00,
2013-01-20 18:13:00,45.3,17.9,29.88,WNW,292,0.0,0.0,33,0.00,,OVC,0.00,VWS V14.00,2013-01-20 23:13:00,
2013-01-20 18:18:00,45.1,18.4,29.88,West,270,0.0,0.0,34,0.00,,OVC,0.00,VWS V14.00,2013-01-20 23:18:00,
2013-01-20 18:23:00,44.9,18.9,29.89,WSW,248,2.2,2.2,35,0.00,,OVC,0.00,VWS V14.00,2013-01-20 23:23:00,
2013-01-20 18:28:00,44.4,18.5,29.89,NNE,22,0.0,0.0,35,0.00,,OVC,0.00,VWS V14.00,2013-01-20 23:28:00,
2013-01-20 18:33:00,44.4,18.5,29.90,ENE,68,0.0,0.0,35,0.00,,OVC,0.00,VWS V14.00,2013-01-20 23:33:00,
2013-01-20 18:38:00,44.0,18.1,29.90,West,270,1.1,1.1,35,0.00,,OVC,0.00,VWS V14.00,2013-01-20 23:38:00,
2013-01-20 18:43:00,43.8,19.2,29.90,NW,315,14.7,14.7,37,0.00,,OVC,0.00,VWS V14.00,2013-01-20 23:43:00,
2013-01-20 18:48:00,43.7,19.1,29.91,West,270,3.1,3.1,37,0.00,,OVC,0.00,VWS V14.00,2013-01-20 23:48:00,
2013-01-20 18:53:00,43.5,19.0,29.91,WNW,292,0.0,0.0,37,0.00,,OVC,0.00,VWS V14.00,2013-01-20 23:53:00,
2013-01-20 18:58:00,43.3,18.8,29.92,NW,315,0.8,0.8,37,0.00,,OVC,0.00,VWS V14.00,2013-01-20 23:58:00,
2013-01-20 19:03:00,42.9,18.4,29.92,WNW,292,0.0,0.0,37,0.00,,OVC,0.00,VWS V14.00,2013-01-21 00:03:00,
2013-01-20 19:08:00,42.6,18.2,29.92,West,270,4.6,4.6,37,0.00,,OVC,0.00,VWS V14.00,2013-01-21 00:08:00,
2013-01-20 19:13:00,42.4,18.6,29.93,South,180,0.0,0.0,38,0.00,,OVC,0.00,VWS V14.00,2013-01-21 00:13:00,
2013-01-20 19:18:00,42.0,18.2,29.93,WNW,292,0.0,0.0,38,0.00,,OVC,0.00,VWS V14.00,2013-01-21 00:18:00,
2013-01-20 19:23:00,41.7,18.0,29.93,West,270,16.3,16.3,38,0.00,,OVC,0.00,VWS V14.00,2013-01-21 00:23:00,
2013-01-20 19:28:00,41.5,17.8,29.94,WNW,292,2.2,2.2,38,0.00,,OVC,0.00,VWS V14.00,2013-01-21 00:28:00,
2013-01-20 19:33:00,41.3,18.2,29.93,WNW,292,2.2,2.2,39,0.00,,OVC,0.00,VWS V14.00,2013-01-21 00:33:00,
2013-01-20 19:38:00,41.1,18.0,29.94,West,270,0.0,0.0,39,0.00,,OVC,0.00,VWS V14.00,2013-01-21 00:38:00,
2013-01-20 19:43:00,40.8,18.4,29.94,WNW,292,0.0,0.0,40,0.00,,OVC,0.00,VWS V14.00,2013-01-21 00:43:00,
2013-01-20 19:48:00,40.4,18.0,29.94,WNW,292,0.0,0.0,40,0.00,,OVC,0.00,VWS V14.00,2013-01-21 00:48:00,
2013-01-20 19:53:00,40.2,17.8,29.94,WNW,292,2.0,2.0,40,0.00,,OVC,0.00,VWS V14.00,2013-01-21 00:53:00,
2013-01-20 19:58:00,40.2,17.8,29.95,WNW,292,2.2,2.2,40,0.00,,OVC,0.00,VWS V14.00,2013-01-21 00:58:00,
2013-01-20 20:03:00,39.9,18.1,29.95,West,270,2.0,2.0,41,0.00,,OVC,0.00,VWS V14.00,2013-01-21 01:03:00,
2013-01-20 20:08:00,39.9,18.1,29.95,SW,225,5.5,5.5,41,0.00,,OVC,0.00,VWS V14.00,2013-01-21 01:08:00,
2013-01-20 20:13:00,39.5,17.8,29.95,WNW,292,0.8,0.8,41,0.00,,OVC,0.00,VWS V14.00,2013-01-21 01:13:00,
2013-01-20 20:18:00,39.3,17.6,29.96,NW,315,8.5,8.5,41,0.00,,OVC,0.00,VWS V14.00,2013-01-21 01:18:00,
2013-01-20 20:23:00,39.2,17.5,29.96,North,0,0.0,0.0,41,0.00,,OVC,0.00,VWS V14.00,2013-01-21 01:23:00,
2013-01-20 20:28:00,38.8,17.1,29.96,WNW,292,0.0,0.0,41,0.00,,OVC,0.00,VWS V14.00,2013-01-21 01:28:00,
2013-01-20 20:33:00,38.8,17.1,29.97,East,90,0.0,0.0,41,0.00,,OVC,0.00,VWS V14.00,2013-01-21 01:33:00,
2013-01-20 20:38:00,38.8,17.1,29.97,WNW,292,0.0,0.0,41,0.00,,OVC,0.00,VWS V14.00,2013-01-21 01:38:00,
2013-01-20 20:43:00,38.4,16.8,29.98,WNW,292,3.5,3.5,41,0.00,,OVC,0.00,VWS V14.00,2013-01-21 01:43:00,
2013-01-20 20:48:00,38.3,16.7,29.98,West,270,0.2,0.2,41,0.00,,OVC,0.00,VWS V14.00,2013-01-21 01:48:00,
2013-01-20 20:53:00,38.1,16.5,29.98,NW,315,4.9,4.9,41,0.00,,OVC,0.00,VWS V14.00,2013-01-21 01:53:00,
2013-01-20 20:58:00,37.9,16.9,29.99,ENE,68,2.0,2.0,42,0.00,,OVC,0.00,VWS V14.00,2013-01-21 01:58:00,
2013-01-20 21:03:00,37.9,16.9,29.99,NW,315,0.0,0.0,42,0.00,,OVC,0.00,VWS V14.00,2013-01-21 02:03:00,
2013-01-20 21:08:00,37.5,17.0,29.99,WSW,248,0.0,0.0,43,0.00,,OVC,0.00,VWS V14.00,2013-01-21 02:08:00,
2013-01-20 21:13:00,37.4,17.0,29.99,SSW,202,0.0,0.0,43,0.00,,OVC,0.00,VWS V14.00,2013-01-21 02:13:00,
2013-01-20 21:18:00,37.2,17.3,29.99,NNW,338,5.1,5.1,44,0.00,,OVC,0.00,VWS V14.00,2013-01-21 02:18:00,
2013-01-20 21:23:00,37.2,17.3,29.99,NW,315,2.2,2.2,44,0.00,,OVC,0.00,VWS V14.00,2013-01-21 02:23:00,
2013-01-20 21:28:00,37.0,17.6,29.99,WSW,248,1.1,1.1,45,0.00,,OVC,0.00,VWS V14.00,2013-01-21 02:28:00,
2013-01-20 21:33:00,36.8,17.5,30.00,NW,315,0.0,0.0,45,0.00,,OVC,0.00,VWS V14.00,2013-01-21 02:33:00,
2013-01-20 21:38:00,36.6,17.3,30.00,SSE,158,0.8,0.8,45,0.00,,OVC,0.00,VWS V14.00,2013-01-21 02:38:00,
2013-01-20 21:43:00,36.5,17.2,30.00,WNW,292,0.0,0.0,45,0.00,,OVC,0.00,VWS V14.00,2013-01-21 02:43:00,
2013-01-20 21:48:00,36.3,17.0,30.00,WNW,292,2.0,2.0,45,0.00,,OVC,0.00,VWS V14.00,2013-01-21 02:48:00,
2013-01-20 21:53:00,36.1,17.3,30.00,SW,225,0.0,0.0,46,0.00,,OVC,0.00,VWS V14.00,2013-01-21 02:53:00,
2013-01-20 21:58:00,35.7,17.0,30.00,North,0,0.0,0.0,46,0.00,,OVC,0.00,VWS V14.00,2013-01-21 02:58:00,
2013-01-20 22:03:00,35.7,17.0,30.00,North,0,4.4,4.4,46,0.00,,OVC,0.00,VWS V14.00,2013-01-21 03:03:00,
2013-01-20 22:08:00,35.4,16.7,30.01,NNW,338,3.8,3.8,46,0.00,,OVC,0.00,VWS V14.00,2013-01-21 03:08:00,
2013-01-20 22:13:00,35.2,16.5,30.01,West,270,5.3,5.3,46,0.00,,OVC,0.00,VWS V14.00,2013-01-21 03:13:00,
2013-01-20 22:18:00,35.2,16.5,30.02,NNW,338,1.1,1.1,46,0.00,,OVC,0.00,VWS V14.00,2013-01-21 03:18:00,
2013-01-20 22:23:00,34.8,16.1,30.02,WNW,292,1.7,1.7,46,0.00,,OVC,0.00,VWS V14.00,2013-01-21 03:23:00,
2013-01-20 22:28:00,34.7,16.0,30.02,NE,45,0.0,0.0,46,0.00,,OVC,0.00,VWS V14.00,2013-01-21 03:28:00,
2013-01-20 22:33:00,34.3,15.7,30.02,WNW,292,0.0,0.0,46,0.00,,OVC,0.00,VWS V14.00,2013-01-21 03:33:00,
2013-01-20 22:38:00,34.3,15.7,30.03,WNW,292,0.0,0.0,46,0.00,,OVC,0.00,VWS V14.00,2013-01-21 03:38:00,
2013-01-20 22:43:00,33.9,15.8,30.03,WNW,292,2.0,2.0,47,0.00,,OVC,0.00,VWS V14.00,2013-01-21 03:43:00,
2013-01-20 22:48:00,33.8,15.7,30.03,NW,315,0.4,0.4,47,0.00,,OVC,0.00,VWS V14.00,2013-01-21 03:48:00,
2013-01-20 22:53:00,33.6,15.5,30.03,NNW,338,2.2,2.2,47,0.00,,OVC,0.00,VWS V14.00,2013-01-21 03:53:00,
2013-01-20 22:58:00,33.8,15.2,30.03,West,270,3.3,3.3,46,0.00,,OVC,0.00,VWS V14.00,2013-01-21 03:58:00,
2013-01-20 23:03:00,33.8,15.2,30.04,NW,315,0.0,0.0,46,0.00,,OVC,0.00,VWS V14.00,2013-01-21 04:03:00,
2013-01-20 23:08:00,33.6,15.5,30.04,WNW,292,6.9,6.9,47,0.00,,OVC,0.00,VWS V14.00,2013-01-21 04:08:00,
2013-01-20 23:13:00,33.6,15.5,30.05,NW,315,0.6,0.6,47,0.00,,OVC,0.00,VWS V14.00,2013-01-21 04:13:00,
2013-01-20 23:18:00,33.4,14.9,30.05,NW,315,0.0,0.0,46,0.00,,OVC,0.00,VWS V14.00,2013-01-21 04:18:00,
2013-01-20 23:23:00,33.4,14.9,30.05,NNW,338,0.0,0.0,46,0.00,,OVC,0.00,VWS V14.00,2013-01-21 04:23:00,
2013-01-20 23:28:00,33.2,15.2,30.05,NNE,22,0.0,0.0,47,0.00,,OVC,0.00,VWS V14.00,2013-01-21 04:28:00,
2013-01-20 23:33:00,33.0,15.0,30.05,WNW,292,0.0,0.0,47,0.00,,OVC,0.00,VWS V14.00,2013-01-21 04:33:00,
2013-01-20 23:38:00,32.9,14.9,30.05,North,0,0.0,0.0,47,0.00,,OVC,0.00,VWS V14.00,2013-01-21 04:38:00,
2013-01-20 23:43:00,32.9,14.9,30.05,NNW,338,0.0,0.0,47,0.00,,OVC,0.00,VWS V14.00,2013-01-21 04:43:00,
2013-01-20 23:48:00,32.7,14.7,30.05,NW,315,0.0,0.0,47,0.00,,OVC,0.00,VWS V14.00,2013-01-21 04:48:00,
2013-01-20 23:53:00,32.5,14.5,30.05,WNW,292,0.0,0.0,47,0.00,,OVC,0.00,VWS V14.00,2013-01-21 04:53:00,
2013-01-20 23:58:00,32.3,14.3,30.05,WNW,292,1.1,1.1,47,0.00,,OVC,0.00,VWS V14.00,2013-01-21 04:58:00,